Time;durP1;ratioP1;P1;durP2;ratioP2;P2;SDS_P1;SDS_P2;PMS_P1;PMS_P2;Temp;Humidity;BMP_temperature;BMP_pressure;BME280_temperature;BME280_humidity;BME280_pressure;Samples;Min_cycle;Max_cycle;Signal;HPM_P1;HPM_P2
2022/09/11 00:00:38;;;;;;;6.07;3.80;;;;;;;20.42;48.89;93755.44;4951611;28;20117;-77
2022/09/11 00:03:04;;;;;;;8.90;3.58;;;;;;;20.45;49.33;93775.50;4971514;28;20121;-80
2022/09/11 00:05:30;;;;;;;3.45;2.88;;;;;;;20.47;49.11;93768.59;4968752;28;20029;-79
2022/09/11 00:07:55;;;;;;;9.07;3.63;;;;;;;20.47;49.08;93763.19;4971129;28;20430;-78
2022/09/11 00:10:23;;;;;;;7.22;3.30;;;;;;;20.49;49.09;93760.09;4953963;28;20523;-78
2022/09/11 00:12:49;;;;;;;5.88;3.45;;;;;;;20.30;49.50;93731.44;4958873;28;20030;-77
2022/09/11 00:15:15;;;;;;;4.32;3.17;;;;;;;20.40;49.11;93746.16;4969395;28;21253;-79
2022/09/11 00:17:41;;;;;;;5.63;3.45;;;;;;;20.08;49.02;93702.72;4969626;28;20034;-77
2022/09/11 00:20:06;;;;;;;5.75;4.05;;;;;;;20.13;49.13;93726.66;4970865;28;20434;-79
2022/09/11 00:22:32;;;;;;;4.30;3.28;;;;;;;20.34;49.42;93764.63;4966912;28;20088;-79
2022/09/11 00:24:58;;;;;;;4.55;3.33;;;;;;;20.37;49.59;93769.31;4965112;28;20504;-80
2022/09/11 00:27:23;;;;;;;5.60;4.20;;;;;;;20.34;49.54;93767.34;4959945;28;20027;-78
2022/09/11 00:29:49;;;;;;;5.35;3.38;;;;;;;20.23;49.76;93742.19;4971544;28;20467;-78
2022/09/11 00:32:14;;;;;;;6.78;3.45;;;;;;;20.35;49.58;93766.19;4970656;28;20026;-78
2022/09/11 00:34:40;;;;;;;3.70;3.10;;;;;;;20.35;49.21;93755.38;4970474;28;20046;-78
2022/09/11 00:37:05;;;;;;;8.05;4.07;;;;;;;20.26;49.50;93752.25;4968483;28;20516;-77
2022/09/11 00:39:31;;;;;;;3.72;3.17;;;;;;;20.40;49.64;93773.16;4969693;28;20113;-79
2022/09/11 00:41:57;;;;;;;4.90;3.67;;;;;;;20.42;49.53;93770.88;4971988;28;20033;-80
2022/09/11 00:44:22;;;;;;;4.00;3.58;;;;;;;20.40;49.71;93768.53;4970091;28;20026;-77
2022/09/11 00:46:52;;;;;;;6.28;4.15;;;;;;;20.37;49.63;93777.41;4953997;28;20030;-78
2022/09/11 00:49:35;;;;;;;4.63;4.05;;;;;;;20.39;49.88;93768.91;4958475;28;20033;-78
2022/09/11 00:52:10;;;;;;;3.88;3.03;;;;;;;20.36;49.96;93765.03;4954691;28;20646;-78
2022/09/11 00:54:42;;;;;;;;;;;;;;;20.36;49.81;93767.75;4971950;28;20555;-78
2022/09/11 00:57:08;;;;;;;6.00;3.50;;;;;;;20.30;50.07;93763.06;4937306;28;19917;-77
2022/09/11 00:59:37;;;;;;;4.55;3.08;;;;;;;20.32;50.31;93761.56;4968641;28;20549;-79
2022/09/11 01:02:04;;;;;;;5.85;3.22;;;;;;;20.31;50.41;93762.69;4969730;28;20069;-80
2022/09/11 01:04:30;;;;;;;4.03;3.60;;;;;;;20.14;50.12;93741.72;4968662;28;20576;-78
2022/09/11 01:06:57;;;;;;;4.88;3.40;;;;;;;20.30;49.67;93761.13;4969068;28;20026;-79
2022/09/11 01:09:25;;;;;;;5.38;3.63;;;;;;;20.23;49.76;93752.22;4965071;28;20345;-79
2022/09/11 01:11:56;;;;;;;2.92;2.63;;;;;;;20.22;49.67;93762.25;4969920;28;20561;-79
2022/09/11 01:14:56;;;;;;;3.55;2.97;;;;;;;19.97;49.66;93723.47;4968852;28;20454;-78
2022/09/11 01:17:59;;;;;;;3.53;2.85;;;;;;;20.24;49.87;93762.63;4971242;28;20022;-78
2022/09/11 01:20:59;;;;;;;3.22;2.92;;;;;;;20.21;49.76;93766.09;4968766;28;20023;-77
2022/09/11 01:23:53;;;;;;;3.00;2.67;;;;;;;19.98;50.07;93768.97;4961457;28;20038;-78
2022/09/11 01:26:49;;;;;;;3.42;2.67;;;;;;;19.96;50.13;93770.50;4952566;28;20086;-80
2022/09/11 01:29:17;;;;;;;;;;;;;;;19.96;50.21;93765.09;4970490;28;20125;-78
2022/09/11 01:32:01;;;;;;;3.17;2.70;;;;;;;19.79;50.23;93765.72;4959438;28;20233;-78
2022/09/11 01:34:34;;;;;;;5.30;3.22;;;;;;;19.67;50.64;93762.16;4955667;28;20030;-78
2022/09/11 01:37:06;;;;;;;2.42;2.22;;;;;;;19.54;50.71;93739.28;4973649;28;20023;-77
2022/09/11 01:39:43;;;;;;;2.63;2.15;;;;;;;19.67;50.24;93743.25;4971621;28;20037;-78
2022/09/11 01:42:15;;;;;;;3.15;2.80;;;;;;;19.00;51.54;93720.19;4973387;28;20491;-78
2022/09/11 01:44:50;;;;;;;4.18;2.65;;;;;;;18.90;51.45;93683.91;4973016;28;20114;-78
2022/09/11 01:47:18;;;;;;;9.82;2.35;;;;;;;19.17;51.37;93714.22;4962246;28;20031;-77
2022/09/11 01:49:49;;;;;;;3.03;2.33;;;;;;;19.15;51.88;93730.78;4973130;28;20498;-78
2022/09/11 01:52:18;;;;;;;2.97;2.38;;;;;;;18.99;52.30;93719.41;4962579;28;20040;-79
2022/09/11 01:54:50;;;;;;;2.65;2.30;;;;;;;19.03;52.59;93731.00;4973831;28;20042;-79
2022/09/11 01:57:38;;;;;;;4.30;2.75;;;;;;;19.18;52.04;93721.16;4955336;28;20022;-78
2022/09/11 02:00:10;;;;;;;5.85;2.55;;;;;;;19.25;51.44;93699.69;4970717;28;20396;-80
2022/09/11 02:02:41;;;;;;;2.80;2.50;;;;;;;19.39;51.31;93699.03;4970788;28;20038;-80
2022/09/11 02:05:17;;;;;;;3.75;2.15;;;;;;;19.51;51.09;93713.03;4957270;28;20120;-77
2022/09/11 02:08:06;;;;;;;3.65;2.42;;;;;;;19.68;50.97;93723.22;4954842;28;20462;-80
2022/09/11 02:10:39;;;;;;;2.78;2.50;;;;;;;19.66;50.70;93698.53;4972374;28;20526;-79
2022/09/11 02:13:10;;;;;;;2.85;2.50;;;;;;;19.82;50.85;93708.28;4973486;28;20035;-78
2022/09/11 02:15:43;;;;;;;3.13;2.22;;;;;;;19.80;50.61;93707.91;4972381;28;20061;-79
2022/09/11 02:18:44;;;;;;;2.47;2.00;;;;;;;19.85;50.31;93710.28;4973867;28;20057;-80
2022/09/11 02:21:09;;;;;;;3.15;2.10;;;;;;;19.62;50.38;93688.88;4971300;28;20054;-78
2022/09/11 02:23:34;;;;;;;3.20;2.35;;;;;;;19.64;50.51;93684.66;4972428;28;20153;-78
2022/09/11 02:26:01;;;;;;;4.88;2.08;;;;;;;19.66;50.51;93698.53;4961357;28;20447;-79
2022/09/11 02:28:27;;;;;;;2.53;2.05;;;;;;;19.77;49.85;93714.81;4972232;28;20030;-77
2022/09/11 02:30:53;;;;;;;2.33;2.13;;;;;;;19.59;50.16;93690.41;4972773;28;20421;-79
2022/09/11 02:33:34;;;;;;;2.92;2.08;;;;;;;19.51;50.38;93686.06;4972722;28;20022;-78
2022/09/11 02:36:18;;;;;;;3.45;1.85;;;;;;;19.72;50.60;93715.94;4956972;28;20023;-78
2022/09/11 02:39:05;;;;;;;7.28;2.40;;;;;;;19.60;51.10;93716.19;4954572;28;20042;-79
2022/09/11 02:41:59;;;;;;;3.55;2.00;;;;;;;19.56;51.17;93715.41;4973442;28;20668;-79
2022/09/11 02:44:27;;;;;;;2.83;1.95;;;;;;;19.53;51.22;93716.16;4942636;28;20086;-79
2022/09/11 02:47:09;;;;;;;2.45;2.15;;;;;;;19.50;51.33;93716.91;4971170;28;20157;-78
2022/09/11 02:49:53;;;;;;;2.40;2.03;;;;;;;19.49;51.47;93719.97;4972222;28;20027;-78
2022/09/11 02:52:26;;;;;;;4.20;2.83;;;;;;;19.47;51.44;93716.84;4973786;28;20030;-80
2022/09/11 02:54:57;;;;;;;2.60;1.83;;;;;;;19.41;51.45;93723.72;4953870;28;20445;-79
2022/09/11 02:57:30;;;;;;;2.10;1.90;;;;;;;19.19;51.47;93684.97;4953907;28;20022;-78
2022/09/11 03:00:01;;;;;;;4.50;2.20;;;;;;;19.34;51.42;93719.03;4972395;28;20030;-78
2022/09/11 03:02:29;;;;;;;6.07;2.08;;;;;;;19.26;51.48;93712.03;4972441;28;20541;-79
2022/09/11 03:04:55;;;;;;;2.95;2.20;;;;;;;19.24;51.55;93715.06;4952190;28;20113;-79
2022/09/11 03:07:24;;;;;;;2.47;2.00;;;;;;;19.23;51.54;93718.91;4973814;28;20033;-76
2022/09/11 03:09:50;;;;;;;2.28;1.70;;;;;;;19.04;51.47;93696.75;4961075;28;20041;-76
2022/09/11 03:12:16;;;;;;;2.92;2.08;;;;;;;19.19;51.75;93733.50;4970847;28;20014;-79
2022/09/11 03:14:42;;;;;;;3.00;2.00;;;;;;;19.03;51.82;93697.88;4954602;28;20053;-77
2022/09/11 03:17:07;;;;;;;2.70;2.00;;;;;;;19.15;51.61;93738.09;4968648;28;20038;-76
2022/09/11 03:19:32;;;;;;;2.65;2.45;;;;;;;19.03;52.06;93741.00;4971678;28;20029;-79
2022/09/11 03:21:58;;;;;;;2.92;2.15;;;;;;;19.06;52.74;93743.78;4971149;28;20027;-76
2022/09/11 03:24:25;;;;;;;3.45;2.20;;;;;;;19.07;52.53;93744.53;4969799;28;20026;-77
2022/09/11 03:26:50;;;;;;;2.83;2.17;;;;;;;19.04;52.73;93742.56;4971354;28;20030;-77
2022/09/11 03:29:16;;;;;;;7.05;2.53;;;;;;;18.94;53.03;93749.38;4970200;28;20037;-77
2022/09/11 03:31:41;;;;;;;2.60;2.05;;;;;;;18.84;52.87;93729.25;4954202;28;20368;-77
2022/09/11 03:34:07;;;;;;;2.80;2.47;;;;;;;18.80;52.75;93733.84;4971342;28;20026;-76
2022/09/11 03:36:33;;;;;;;3.20;2.72;;;;;;;18.91;52.79;93754.75;4960464;28;20022;-78
2022/09/11 03:38:59;;;;;;;2.40;2.20;;;;;;;18.76;52.72;93743.78;4968897;28;20494;-76
2022/09/11 03:41:25;;;;;;;2.13;1.92;;;;;;;18.73;52.86;93739.13;4971360;28;20338;-78
2022/09/11 03:43:50;;;;;;;6.18;2.40;;;;;;;18.80;52.75;93760.00;4970331;28;20156;-78
2022/09/11 03:46:16;;;;;;;3.00;1.85;;;;;;;18.59;52.72;93730.81;4969667;28;20054;-77
2022/09/11 03:48:42;;;;;;;3.97;2.15;;;;;;;18.73;52.65;93754.50;4971883;28;20501;-77
2022/09/11 03:51:07;;;;;;;4.05;1.90;;;;;;;18.60;52.67;93742.38;4969385;28;20475;-77
2022/09/11 03:53:33;;;;;;;2.65;2.00;;;;;;;18.39;52.58;93713.25;4971728;28;20446;-77
2022/09/11 03:55:59;;;;;;;2.70;1.80;;;;;;;18.46;52.62;93737.59;4951793;28;20041;-76
2022/09/11 03:58:25;;;;;;;2.00;1.80;;;;;;;18.55;52.72;93756.16;4970982;28;20522;-78
2022/09/11 04:00:51;;;;;;;5.03;2.15;;;;;;;18.41;52.67;93743.28;4970305;28;20030;-78
2022/09/11 04:03:16;;;;;;;2.03;1.85;;;;;;;18.54;52.45;93766.16;4971555;28;20066;-76
2022/09/11 04:05:54;;;;;;;5.18;2.60;;;;;;;18.27;52.39;93743.88;4969896;28;20503;-77
2022/09/11 04:08:19;;;;;;;2.65;1.85;;;;;;;18.23;52.61;93742.25;4971206;28;20027;-78
2022/09/11 04:10:44;;;;;;;4.43;1.70;;;;;;;18.33;52.62;93752.41;4969975;28;20074;-77
2022/09/11 04:13:10;;;;;;;2.10;1.90;;;;;;;18.38;53.03;93766.31;4970295;28;20038;-76
2022/09/11 04:15:36;;;;;;;2.80;2.10;;;;;;;18.24;53.08;93743.78;4951896;28;20112;-77
2022/09/11 04:18:05;;;;;;;3.90;2.20;;;;;;;18.19;53.45;93757.56;4968835;28;20431;-76
2022/09/11 04:20:30;;;;;;;3.47;2.45;;;;;;;18.32;53.80;93769.69;4970859;28;20807;-77
2022/09/11 04:22:56;;;;;;;3.65;3.00;;;;;;;18.24;54.17;93757.25;4960299;28;20591;-77
2022/09/11 04:25:21;;;;;;;2.67;2.45;;;;;;;17.75;54.07;93684.59;4970894;28;20019;-76
2022/09/11 04:27:47;;;;;;;3.33;2.45;;;;;;;18.25;54.09;93762.28;4970891;28;20474;-78
2022/09/11 04:30:12;;;;;;;2.63;2.38;;;;;;;18.23;54.13;93758.41;4970944;28;20034;-76
2022/09/11 04:32:38;;;;;;;3.08;2.78;;;;;;;18.29;54.49;93762.31;4970329;28;20125;-77
2022/09/11 04:35:03;;;;;;;3.85;2.53;;;;;;;18.13;54.64;93737.50;4968940;28;20054;-77
2022/09/11 04:37:29;;;;;;;3.30;2.40;;;;;;;18.33;54.67;93766.63;4970555;28;20018;-77
2022/09/11 04:39:54;;;;;;;4.03;2.47;;;;;;;18.24;54.75;93749.19;4967618;28;20030;-77
2022/09/11 04:42:19;;;;;;;3.40;2.72;;;;;;;18.41;54.79;93770.22;4971647;28;20026;-77
2022/09/11 04:44:48;;;;;;;3.33;2.38;;;;;;;18.21;54.86;93744.53;4969391;28;20046;-77
2022/09/11 04:47:14;;;;;;;5.10;2.15;;;;;;;18.43;54.77;93770.63;4970569;28;20026;-76
2022/09/11 04:49:39;;;;;;;2.30;2.10;;;;;;;18.29;54.53;93743.47;4953441;28;20113;-76
2022/09/11 04:52:06;;;;;;;2.70;2.20;;;;;;;18.46;54.16;93759.13;4971383;28;20488;-77
2022/09/11 04:54:35;;;;;;;4.57;2.70;;;;;;;18.64;54.16;93773.59;4969688;28;20038;-79
2022/09/11 04:57:02;;;;;;;2.67;2.22;;;;;;;18.54;53.79;93749.22;4971509;28;20109;-76
2022/09/11 04:59:27;;;;;;;3.88;2.75;;;;;;;18.59;53.88;93749.69;4970763;28;20414;-75
2022/09/11 05:01:53;;;;;;;2.80;2.60;;;;;;;18.78;53.93;93771.13;4970422;28;20037;-78
2022/09/11 05:04:18;;;;;;;3.22;2.92;;;;;;;18.51;54.51;93750.72;4968495;28;20391;-77
2022/09/11 05:06:47;;;;;;;3.40;2.70;;;;;;;18.45;55.04;93744.88;4969681;28;20443;-77
2022/09/11 05:09:13;;;;;;;3.35;3.05;;;;;;;18.75;55.32;93779.16;4972203;28;20146;-77
2022/09/11 05:11:39;;;;;;;4.05;3.28;;;;;;;18.58;55.94;93766.97;4973969;28;20036;-78
2022/09/11 05:14:05;;;;;;;5.15;3.92;;;;;;;18.59;56.17;93771.22;4973575;28;20026;-77
2022/09/11 05:16:33;;;;;;;6.03;3.90;;;;;;;18.37;57.26;93772.88;4972418;28;21153;-78
2022/09/11 05:19:00;;;;;;;4.45;3.78;;;;;;;18.45;57.62;93771.81;4959459;28;20019;-76
2022/09/11 05:21:27;;;;;;;4.43;4.03;;;;;;;18.56;57.23;93763.88;4957531;28;20041;-76
2022/09/11 05:23:55;;;;;;;4.63;4.18;;;;;;;18.58;57.05;93769.66;4972327;28;20521;-77
2022/09/11 05:26:41;;;;;;;4.50;3.55;;;;;;;18.71;57.11;93768.34;4972534;28;20112;-77
2022/09/11 05:29:12;;;;;;;6.38;4.63;;;;;;;18.57;56.99;93746.59;4970776;28;20070;-78
2022/09/11 05:31:38;;;;;;;4.85;3.47;;;;;;;18.39;57.20;93713.25;4974615;28;20029;-78
2022/09/11 05:34:04;;;;;;;8.18;4.35;;;;;;;18.73;57.18;93765.28;4972910;28;20026;-78
2022/09/11 05:36:30;;;;;;;8.73;3.53;;;;;;;18.54;57.64;93724.97;4972966;28;20480;-79
2022/09/11 05:38:57;;;;;;;6.10;4.43;;;;;;;18.77;57.34;93766.13;4973341;28;20031;-78
2022/09/11 05:41:23;;;;;;;8.13;4.80;;;;;;;18.65;58.10;93753.63;4973537;28;20026;-79
2022/09/11 05:43:48;;;;;;;6.57;4.30;;;;;;;18.60;57.79;93718.91;4971776;28;20034;-77
2022/09/11 05:46:16;;;;;;;8.32;5.20;;;;;;;18.88;57.84;93743.53;4972446;28;20058;-79
2022/09/11 05:48:42;;;;;;;6.38;5.03;;;;;;;18.67;57.88;93729.78;4973169;28;20185;-78
2022/09/11 05:51:19;;;;;;;5.75;5.15;;;;;;;19.05;57.66;93752.22;4971442;28;20566;-79
2022/09/11 05:53:45;;;;;;;6.85;4.53;;;;;;;19.24;57.73;93757.44;4953644;28;20490;-78
2022/09/11 05:56:19;;;;;;;5.43;4.60;;;;;;;19.31;56.66;93749.44;4963152;28;20029;-78
2022/09/11 05:58:46;;;;;;;5.30;4.20;;;;;;;19.32;56.17;93749.03;4973240;28;20113;-79
2022/09/11 06:01:19;;;;;;;8.45;5.07;;;;;;;19.44;55.80;93756.13;4962789;28;20054;-79
2022/09/11 06:03:48;;;;;;;8.60;5.88;;;;;;;19.37;55.67;93739.84;4967615;28;20104;-79
2022/09/11 06:06:14;;;;;;;5.55;4.78;;;;;;;19.37;54.69;93729.06;4969759;28;20030;-78
2022/09/11 06:08:43;;;;;;;6.55;5.07;;;;;;;19.43;55.34;93765.34;4978147;28;20045;-79
2022/09/11 06:11:09;;;;;;;6.03;5.18;;;;;;;19.34;56.42;93772.94;4957093;28;20023;-79
2022/09/11 06:13:40;;;;;;;7.85;4.70;;;;;;;19.44;56.49;93769.59;4971653;28;20141;-77
2022/09/11 06:16:13;;;;;;;5.57;4.85;;;;;;;19.56;56.53;93774.75;4974746;28;20049;-78
2022/09/11 06:18:38;;;;;;;5.65;5.05;;;;;;;19.41;57.40;93783.81;4967823;28;20100;-78
2022/09/11 06:21:07;;;;;;;7.90;4.93;;;;;;;19.22;57.23;93746.22;4974231;28;20022;-77
2022/09/11 06:23:34;;;;;;;7.50;5.53;;;;;;;19.44;57.29;93772.28;4975828;28;20037;-79
2022/09/11 06:26:11;;;;;;;6.88;4.55;;;;;;;19.48;57.33;93777.75;4979040;28;20082;-78
2022/09/11 06:28:37;;;;;;;7.47;5.30;;;;;;;19.66;56.92;93779.47;4981838;28;20639;-79
2022/09/11 06:31:05;;;;;;;6.20;4.95;;;;;;;19.47;56.50;93760.00;4975818;28;20018;-79
2022/09/11 06:33:33;;;;;;;7.88;5.60;;;;;;;19.47;57.26;93785.06;4964143;28;20155;-77
2022/09/11 06:36:04;;;;;;;6.70;5.43;;;;;;;19.67;56.72;93785.66;4958595;28;20022;-78
2022/09/11 06:38:33;;;;;;;8.43;6.28;;;;;;;19.56;56.24;93763.97;4977526;28;20041;-79
2022/09/11 06:41:03;;;;;;;11.27;5.50;;;;;;;19.50;55.94;93787.03;4977339;28;20033;-80
2022/09/11 06:43:29;;;;;;;6.43;5.38;;;;;;;19.38;55.25;93795.34;4973048;28;20033;-78
2022/09/11 06:46:02;;;;;;;6.55;5.18;;;;;;;19.48;56.22;93789.31;4973259;28;20093;-79
2022/09/11 06:48:29;;;;;;;6.82;5.53;;;;;;;19.39;56.57;93790.72;4974918;28;20030;-78
2022/09/11 06:50:56;;;;;;;6.30;5.13;;;;;;;19.41;55.72;93794.59;4972911;28;20030;-80
2022/09/11 06:53:21;;;;;;;12.05;4.85;;;;;;;19.44;55.25;93788.47;4973024;28;20447;-77
2022/09/11 06:55:47;;;;;;;6.07;4.57;;;;;;;19.46;53.55;93790.81;4973025;28;20023;-79
2022/09/11 06:58:12;;;;;;;5.22;4.15;;;;;;;19.27;53.46;93762.84;4969688;28;20590;-81
2022/09/11 07:00:38;;;;;;;5.47;4.47;;;;;;;19.61;53.19;93787.91;4970599;28;20051;-79
2022/09/11 07:03:03;;;;;;;7.32;5.55;;;;;;;19.36;52.47;93759.88;4951056;28;20042;-79
2022/09/11 07:05:29;;;;;;;4.97;4.18;;;;;;;19.41;51.22;93785.75;4972891;28;20027;-79
2022/09/11 07:07:56;;;;;;;4.50;3.92;;;;;;;19.24;51.46;93758.22;4971386;28;20117;-78
2022/09/11 07:10:22;;;;;;;4.20;3.80;;;;;;;19.64;52.00;93791.78;4971968;28;20036;-77
2022/09/11 07:12:47;;;;;;;4.72;4.05;;;;;;;19.69;52.00;93773.34;4961216;28;20023;-78
2022/09/11 07:15:13;;;;;;;5.75;4.57;;;;;;;19.96;50.64;93794.78;4970445;28;20082;-77
2022/09/11 07:17:39;;;;;;;7.32;4.85;;;;;;;19.91;50.66;93763.50;4954608;28;20041;-77
2022/09/11 07:20:07;;;;;;;5.05;4.55;;;;;;;19.81;49.02;93726.41;4962275;28;20038;-77
2022/09/11 07:22:34;;;;;;;6.95;5.18;;;;;;;20.05;48.59;93765.53;4973035;28;20585;-79
2022/09/11 07:24:59;;;;;;;5.80;4.85;;;;;;;20.06;48.77;93772.50;4963328;28;20034;-78
2022/09/11 07:27:25;;;;;;;8.77;5.32;;;;;;;20.05;48.52;93760.91;4969132;28;20034;-78
2022/09/11 07:29:51;;;;;;;6.93;5.60;;;;;;;20.36;47.88;93792.06;4970275;28;20547;-79
2022/09/11 07:32:16;;;;;;;7.38;5.45;;;;;;;20.36;47.74;93789.34;4969470;28;20294;-77
2022/09/11 07:34:41;;;;;;;6.63;4.90;;;;;;;20.23;48.10;93777.31;4973290;28;20037;-78
2022/09/11 07:37:07;;;;;;;6.60;5.88;;;;;;;20.14;48.53;93782.22;4972254;28;20702;-78
2022/09/11 07:39:32;;;;;;;6.28;5.30;;;;;;;20.08;47.76;93751.31;4969330;28;20030;-79
2022/09/11 07:41:58;;;;;;;5.13;4.63;;;;;;;20.28;47.16;93776.97;4964190;28;20035;-78
2022/09/11 07:44:23;;;;;;;6.05;5.38;;;;;;;20.14;48.57;93755.22;4965709;28;20022;-79
2022/09/11 07:46:49;;;;;;;7.43;6.30;;;;;;;20.37;48.55;93774.69;4965203;28;20041;-77
2022/09/11 07:49:15;;;;;;;8.55;6.35;;;;;;;20.26;47.11;93768.44;4965665;28;20027;-79
2022/09/11 07:51:40;;;;;;;6.93;5.57;;;;;;;20.30;46.67;93761.13;4952117;28;20374;-78
2022/09/11 07:54:07;;;;;;;7.38;5.88;;;;;;;20.44;46.81;93777.44;4964397;28;20037;-77
2022/09/11 07:56:34;;;;;;;6.25;5.45;;;;;;;20.46;46.13;93761.63;4951398;28;20517;-78
2022/09/11 07:59:00;;;;;;;6.55;4.95;;;;;;;20.63;45.72;93781.06;4966771;28;20460;-77
2022/09/11 08:01:28;;;;;;;6.45;5.30;;;;;;;20.61;45.46;93778.72;4968559;28;20542;-79
2022/09/11 08:04:02;;;;;;;10.43;5.97;;;;;;;20.70;46.07;93776.44;4964377;28;20121;-78
2022/09/11 08:06:30;;;;;;;6.95;5.63;;;;;;;20.78;46.08;93777.25;4965319;28;20041;-77
2022/09/11 08:09:00;;;;;;;6.25;5.47;;;;;;;20.78;45.31;93779.94;4967843;28;20030;-78
2022/09/11 08:11:27;;;;;;;7.13;6.03;;;;;;;20.68;46.32;93764.47;4966327;28;20023;-78
2022/09/11 08:13:54;;;;;;;7.40;5.40;;;;;;;20.58;46.89;93752.47;4969224;28;20113;-77
2022/09/11 08:16:23;;;;;;;7.18;6.05;;;;;;;20.54;47.29;93743.53;4968040;28;20318;-80
2022/09/11 08:18:49;;;;;;;6.97;5.70;;;;;;;20.45;46.30;93740.41;4970523;28;20026;-78
2022/09/11 08:21:15;;;;;;;7.78;6.10;;;;;;;20.45;46.50;93735.78;4968958;28;20030;-79
2022/09/11 08:23:42;;;;;;;8.15;6.10;;;;;;;20.54;45.79;93757.03;4969477;28;20026;-78
2022/09/11 08:26:20;;;;;;;9.45;6.13;;;;;;;20.57;45.83;93751.69;4954104;28;20030;-80
2022/09/11 08:28:49;;;;;;;7.22;5.65;;;;;;;20.60;46.29;93752.84;4962284;28;21223;-77
2022/09/11 08:31:15;;;;;;;8.70;6.68;;;;;;;20.53;47.33;93750.88;4960696;28;20026;-75
2022/09/11 08:33:41;;;;;;;8.15;6.22;;;;;;;20.56;48.28;93750.13;4965073;28;20030;-76
2022/09/11 08:36:08;;;;;;;7.03;6.25;;;;;;;20.40;47.37;93746.94;4967839;28;20029;-76
2022/09/11 08:38:35;;;;;;;8.65;6.65;;;;;;;20.39;48.01;93723.78;4969821;28;20022;-76
2022/09/11 08:41:22;;;;;;;7.45;6.10;;;;;;;20.65;48.27;93751.72;4970922;28;20027;-77
2022/09/11 08:43:55;;;;;;;8.52;6.68;;;;;;;20.69;48.75;93747.09;4974487;28;20112;-78
2022/09/11 08:46:25;;;;;;;9.63;6.93;;;;;;;20.58;48.38;93750.50;4985549;28;20034;-76
2022/09/11 08:49:00;;;;;;;7.57;6.55;;;;;;;20.62;49.49;93755.19;4984606;28;20077;-76
2022/09/11 08:51:26;;;;;;;8.10;6.07;;;;;;;20.49;49.59;93744.66;4983719;28;20018;-79
2022/09/11 08:53:54;;;;;;;8.10;5.75;;;;;;;20.26;48.87;93735.25;4984173;28;20042;-79
2022/09/11 08:56:23;;;;;;;6.90;5.82;;;;;;;20.38;48.61;93749.25;4985473;28;20049;-78
2022/09/11 08:58:49;;;;;;;7.72;6.55;;;;;;;20.39;49.50;93744.59;4985918;28;20037;-78
2022/09/11 09:01:27;;;;;;;7.40;6.03;;;;;;;20.36;49.42;93740.75;4984346;28;20030;-79
2022/09/11 09:04:02;;;;;;;7.90;6.05;;;;;;;20.32;49.74;93739.94;4974426;28;20489;-77
2022/09/11 09:06:47;;;;;;;8.02;6.30;;;;;;;20.43;49.08;93732.69;4970065;28;20260;-77
2022/09/11 09:09:36;;;;;;;7.72;5.82;;;;;;;20.29;48.72;93740.69;4971099;28;20042;-79
2022/09/11 09:12:19;;;;;;;7.82;5.90;;;;;;;20.21;48.05;93738.31;4969903;28;20101;-77
2022/09/11 09:14:47;;;;;;;7.35;5.95;;;;;;;20.40;48.81;93730.72;4962943;28;20057;-79
2022/09/11 09:17:33;;;;;;;10.43;5.95;;;;;;;20.50;47.20;93735.41;4970944;28;20034;-78
2022/09/11 09:20:09;;;;;;;6.68;5.90;;;;;;;20.34;46.49;93726.81;4964148;28;20037;-78
2022/09/11 09:22:46;;;;;;;7.85;5.72;;;;;;;19.84;46.73;93652.03;4973216;28;20380;-78
2022/09/11 09:25:15;;;;;;;8.10;5.55;;;;;;;20.37;46.56;93723.38;4973300;28;20398;-78
2022/09/11 09:27:50;;;;;;;7.93;5.75;;;;;;;19.95;47.99;93653.66;4971899;28;20065;-77
2022/09/11 09:30:17;;;;;;;;;;;;;;;20.38;47.82;93719.53;4973513;28;20030;-77
2022/09/11 09:32:55;;;;;;;8.90;5.55;;;;;;;20.30;47.31;93698.25;4973529;28;19917;-79
2022/09/11 09:35:40;;;;;;;7.93;6.40;;;;;;;20.55;46.92;93716.16;4972208;28;20056;-78
2022/09/11 09:38:17;;;;;;;;;;;;;;;20.51;46.97;93715.38;4974451;28;20426;-77
2022/09/11 09:40:50;;;;;;;8.30;6.32;;;;;;;20.23;46.74;93669.28;4973528;28;20393;-76
2022/09/11 09:43:28;;;;;;;6.45;5.78;;;;;;;20.57;46.58;93719.25;4973518;28;20034;-77
2022/09/11 09:46:14;;;;;;;8.13;5.90;;;;;;;20.59;46.39;93711.53;4972985;28;20609;-79
2022/09/11 09:48:39;;;;;;;7.40;6.38;;;;;;;20.68;46.28;93705.03;4973359;28;20034;-80
2022/09/11 09:51:09;;;;;;;9.98;6.07;;;;;;;20.76;45.68;93714.72;4972353;28;20390;-77
2022/09/11 09:53:42;;;;;;;6.38;5.30;;;;;;;20.76;44.69;93710.09;4973089;28;20599;-78
2022/09/11 09:56:15;;;;;;;8.18;6.18;;;;;;;20.86;44.69;93697.75;4971658;28;20034;-80
2022/09/11 09:58:57;;;;;;;6.80;5.90;;;;;;;20.94;44.84;93699.34;4972831;28;20494;-80
2022/09/11 10:01:45;;;;;;;6.45;5.78;;;;;;;20.81;44.50;93707.00;4963574;28;20141;-79
2022/09/11 10:04:28;;;;;;;6.47;4.63;;;;;;;20.88;44.23;93698.19;4975234;28;20048;-76
2022/09/11 10:07:04;;;;;;;5.70;4.90;;;;;;;20.81;43.58;93680.00;4975825;28;20030;-79
2022/09/11 10:09:30;;;;;;;8.95;4.75;;;;;;;20.79;43.58;93681.50;4973580;28;20515;-78
2022/09/11 10:11:57;;;;;;;5.85;4.88;;;;;;;20.80;43.56;93689.25;4971617;28;20026;-78
2022/09/11 10:14:22;;;;;;;5.97;4.90;;;;;;;20.76;43.37;93664.13;4972962;28;20486;-77
2022/09/11 10:16:49;;;;;;;7.45;4.95;;;;;;;20.83;44.12;93663.38;4972874;28;20031;-77
2022/09/11 10:19:40;;;;;;;7.15;6.05;;;;;;;21.06;44.14;93685.50;4973146;28;20022;-78
2022/09/11 10:22:21;;;;;;;5.65;4.72;;;;;;;20.99;43.82;93658.44;4972095;28;20034;-79
2022/09/11 10:25:01;;;;;;;7.55;4.95;;;;;;;21.25;43.47;93685.16;4973775;28;20033;-78
2022/09/11 10:27:30;;;;;;;6.20;4.80;;;;;;;21.31;42.52;93680.94;4977755;28;20632;-79
2022/09/11 10:29:56;;;;;;;6.07;5.22;;;;;;;21.29;42.97;93674.34;4981056;28;20104;-78
2022/09/11 10:32:23;;;;;;;6.80;5.70;;;;;;;20.96;43.40;93624.84;4977535;28;20033;-77
2022/09/11 10:34:50;;;;;;;8.60;6.05;;;;;;;21.37;43.86;93679.38;4975183;28;20479;-78
2022/09/11 10:37:27;;;;;;;7.30;5.05;;;;;;;21.39;43.66;93676.28;4973915;28;20034;-79
2022/09/11 10:40:01;;;;;;;9.15;5.40;;;;;;;21.50;43.24;93687.13;4978732;28;20693;-79
2022/09/11 10:42:30;;;;;;;5.55;4.95;;;;;;;21.52;43.58;93684.81;4983578;28;20026;-78
2022/09/11 10:45:07;;;;;;;5.78;4.97;;;;;;;21.58;43.14;93675.19;4971678;28;20608;-79
2022/09/11 10:47:33;;;;;;;6.03;5.32;;;;;;;21.47;43.04;93667.03;4971571;28;20613;-78
2022/09/11 10:50:23;;;;;;;5.82;5.07;;;;;;;21.55;42.91;93673.25;4971787;28;20122;-78
2022/09/11 10:52:57;;;;;;;6.03;5.13;;;;;;;21.53;43.04;93653.88;4963314;28;20050;-78
2022/09/11 10:55:34;;;;;;;5.47;4.80;;;;;;;21.55;42.49;93643.50;4970911;28;20085;-80
2022/09/11 10:58:22;;;;;;;6.65;5.03;;;;;;;21.73;43.41;93661.28;4972308;28;20031;-78
2022/09/11 11:00:50;;;;;;;5.95;4.93;;;;;;;21.77;43.67;93648.50;4972186;28;20022;-77
2022/09/11 11:03:21;;;;;;;5.68;4.55;;;;;;;21.80;43.19;93663.22;4970909;28;20035;-79
2022/09/11 11:06:05;;;;;;;5.68;4.40;;;;;;;21.77;43.49;93653.16;4969264;28;20026;-79
2022/09/11 11:08:46;;;;;;;6.65;4.90;;;;;;;21.92;43.46;93659.31;4973296;28;20502;-79
2022/09/11 11:11:56;;;;;;;6.05;5.45;;;;;;;21.94;43.56;93652.38;4969830;28;20054;-80
2022/09/11 11:14:53;;;;;;;5.95;5.13;;;;;;;21.96;43.97;93655.44;4920392;28;20042;-78
2022/09/11 11:17:40;;;;;;;6.55;5.85;;;;;;;22.00;43.00;93644.63;4970310;28;20455;-78
2022/09/11 11:20:33;;;;;;;5.85;5.10;;;;;;;21.96;43.09;93650.03;4972180;28;20520;-78
2022/09/11 11:23:17;;;;;;;8.18;5.97;;;;;;;22.03;43.45;93636.50;4966046;28;20042;-79
2022/09/11 11:26:03;;;;;;;5.15;4.65;;;;;;;21.90;42.97;93634.59;4970663;28;20130;-79
2022/09/11 11:28:38;;;;;;;6.25;5.00;;;;;;;21.86;42.78;93629.16;4971021;28;20438;-77
2022/09/11 11:31:16;;;;;;;5.38;4.78;;;;;;;21.93;43.30;93634.59;4969419;28;20098;-80
2022/09/11 11:34:14;;;;;;;6.93;4.95;;;;;;;21.76;43.25;93614.47;4970183;28;20027;-78
2022/09/11 11:36:45;;;;;;;6.60;4.85;;;;;;;21.75;43.25;93625.72;4949749;28;20267;-77
2022/09/11 11:39:28;;;;;;;5.63;5.13;;;;;;;21.83;42.87;93625.31;4971314;28;20027;-79
2022/09/11 11:42:00;;;;;;;6.78;5.60;;;;;;;21.80;42.99;93619.91;4959534;28;20141;-79
2022/09/11 11:44:51;;;;;;;7.13;4.78;;;;;;;21.92;42.93;93608.66;4967927;28;20319;-77
2022/09/11 11:47:19;;;;;;;6.32;4.72;;;;;;;21.96;42.49;93617.56;4946882;28;20030;-79
2022/09/11 11:50:10;;;;;;;5.53;5.03;;;;;;;21.93;42.37;93604.81;4971019;28;20031;-78
2022/09/11 11:53:08;;;;;;;6.50;4.75;;;;;;;22.02;42.35;93617.94;4969768;28;20565;-79